EGHI Airport Information

Runway Information
Runway 02 Length 5653 ft width 121 ft
Elevation 31 ft Threshold 240 ft Heading 19
Runway 20 Length 5653 ft Width 121 ft
Elevation 44 ft Threshold 145 ft Heading 199
Airport Frequencies
Type APP Name APP Frequency 128.85 MHZ
Type ATIS Name ATIS Frequency 113.35 MHZ
Type GND Name GND Frequency 121.775 MHZ
Type OPS Name OPS Frequency 130.65 MHZ
Type TWR Name TWR Frequency 118.2 MHZ
Airport Navaids
Type NDB Name Southampton Frequency 392 KHZ
Type VOR-DME Name Southampton Frequency 113350 KHZ
Airport Weather Information & NOTAM
ADDS - METARS form results

(0431 UTC 22 January 2020)
Data provider http://aviationweather.gov/metar/data/
 
Forecast for: EGHI (SOUTHAMPTON WX C, GB)
Text: TAF EGHI 212001Z 2121/2123 02003KT 9999 MIFG NSC
Forecast period: 2100 to 2300 UTC 21 January 2020
Forecast type: FROM: standard forecast or significant change
Winds: from the NNE (20 degrees) at 3 MPH (3 knots; 1.5 m/s)
Visibility: 6 or more miles 10+ km)
Ceiling: unknown
Clouds: missing
Weather: MIFG  (shallow fog)
Text: PROB30 2121/2123 0300 FG FZFG VV///
Forecast period: 2100 to 2300 UTC 21 January 2020
Forecast type: PROBABLE: 30 percent likelihood of the following during this time
Visibility: 0.19 miles (0.31 km)
Ceiling: unknown
Clouds: missing
Weather: FG FZFG  (fog, freezing fog)